sensor_id;sensor_type;location;lat;lon;timestamp;temperature;humidity
29201;DHT22;16244;51.956;12.980;2023-02-03T00:00:52;2.60;99.90
29201;DHT22;16244;51.956;12.980;2023-02-03T00:03:20;2.60;99.90
29201;DHT22;16244;51.956;12.980;2023-02-03T00:05:47;2.60;99.90
29201;DHT22;16244;51.956;12.980;2023-02-03T00:08:16;2.70;99.90
29201;DHT22;16244;51.956;12.980;2023-02-03T00:10:45;2.70;99.90
29201;DHT22;16244;51.956;12.980;2023-02-03T00:13:13;2.70;99.90
29201;DHT22;16244;51.956;12.980;2023-02-03T00:15:40;2.60;99.90
29201;DHT22;16244;51.956;12.980;2023-02-03T00:18:07;2.70;99.90
29201;DHT22;16244;51.956;12.980;2023-02-03T00:20:35;2.60;99.90
29201;DHT22;16244;51.956;12.980;2023-02-03T00:23:03;2.60;99.90
29201;DHT22;16244;51.956;12.980;2023-02-03T00:25:31;2.70;99.90
29201;DHT22;16244;51.956;12.980;2023-02-03T00:27:58;2.70;99.90
29201;DHT22;16244;51.956;12.980;2023-02-03T00:30:25;2.70;99.90
29201;DHT22;16244;51.956;12.980;2023-02-03T00:32:52;2.70;99.90
29201;DHT22;16244;51.956;12.980;2023-02-03T00:35:20;2.70;99.90
29201;DHT22;16244;51.956;12.980;2023-02-03T00:37:51;2.70;99.90
29201;DHT22;16244;51.956;12.980;2023-02-03T00:40:19;2.80;99.90
29201;DHT22;16244;51.956;12.980;2023-02-03T00:42:47;2.70;99.90
29201;DHT22;16244;51.956;12.980;2023-02-03T00:45:14;2.80;99.90
29201;DHT22;16244;51.956;12.980;2023-02-03T00:47:41;2.70;99.90
29201;DHT22;16244;51.956;12.980;2023-02-03T00:50:09;2.80;99.90
29201;DHT22;16244;51.956;12.980;2023-02-03T00:52:36;2.80;99.90
29201;DHT22;16244;51.956;12.980;2023-02-03T00:55:06;2.80;99.90
29201;DHT22;16244;51.956;12.980;2023-02-03T00:57:34;2.70;99.90
29201;DHT22;16244;51.956;12.980;2023-02-03T01:00:01;2.70;99.90
29201;DHT22;16244;51.956;12.980;2023-02-03T01:02:28;2.80;99.90
29201;DHT22;16244;51.956;12.980;2023-02-03T01:04:55;2.70;99.90
29201;DHT22;16244;51.956;12.980;2023-02-03T01:07:22;2.80;99.90
29201;DHT22;16244;51.956;12.980;2023-02-03T01:09:49;2.70;99.90
29201;DHT22;16244;51.956;12.980;2023-02-03T01:12:18;2.80;99.90
29201;DHT22;16244;51.956;12.980;2023-02-03T01:14:45;2.80;99.90
29201;DHT22;16244;51.956;12.980;2023-02-03T01:17:12;2.80;99.90
29201;DHT22;16244;51.956;12.980;2023-02-03T01:19:39;2.70;99.90
29201;DHT22;16244;51.956;12.980;2023-02-03T01:22:06;2.70;99.90
29201;DHT22;16244;51.956;12.980;2023-02-03T01:24:33;2.70;99.90
29201;DHT22;16244;51.956;12.980;2023-02-03T01:27:00;2.70;99.90
29201;DHT22;16244;51.956;12.980;2023-02-03T01:29:29;2.60;99.90
29201;DHT22;16244;51.956;12.980;2023-02-03T01:31:56;2.50;99.90
29201;DHT22;16244;51.956;12.980;2023-02-03T01:34:23;2.50;99.90
29201;DHT22;16244;51.956;12.980;2023-02-03T01:36:51;2.50;99.90
29201;DHT22;16244;51.956;12.980;2023-02-03T01:39:18;2.50;99.90
29201;DHT22;16244;51.956;12.980;2023-02-03T01:41:45;2.50;99.90
29201;DHT22;16244;51.956;12.980;2023-02-03T01:44:38;2.40;99.90
29201;DHT22;16244;51.956;12.980;2023-02-03T01:47:12;2.40;99.90
29201;DHT22;16244;51.956;12.980;2023-02-03T01:49:42;2.40;99.90
29201;DHT22;16244;51.956;12.980;2023-02-03T01:52:10;2.40;99.90
29201;DHT22;16244;51.956;12.980;2023-02-03T01:54:41;2.40;99.90
29201;DHT22;16244;51.956;12.980;2023-02-03T01:57:14;2.50;99.90
29201;DHT22;16244;51.956;12.980;2023-02-03T01:59:45;2.40;99.90
29201;DHT22;16244;51.956;12.980;2023-02-03T02:02:13;2.40;99.90
29201;DHT22;16244;51.956;12.980;2023-02-03T02:04:47;2.40;99.90
29201;DHT22;16244;51.956;12.980;2023-02-03T02:07:17;2.40;99.90
29201;DHT22;16244;51.956;12.980;2023-02-03T02:09:44;2.40;99.90
29201;DHT22;16244;51.956;12.980;2023-02-03T02:12:12;2.40;99.90
29201;DHT22;16244;51.956;12.980;2023-02-03T02:14:40;2.40;99.90
29201;DHT22;16244;51.956;12.980;2023-02-03T02:17:21;2.40;99.90
29201;DHT22;16244;51.956;12.980;2023-02-03T02:23:35;2.40;99.90
29201;DHT22;16244;51.956;12.980;2023-02-03T02:26:35;2.40;99.90
29201;DHT22;16244;51.956;12.980;2023-02-03T02:32:09;2.40;99.90
29201;DHT22;16244;51.956;12.980;2023-02-03T02:34:49;2.40;99.90
29201;DHT22;16244;51.956;12.980;2023-02-03T02:37:23;2.40;99.90
29201;DHT22;16244;51.956;12.980;2023-02-03T02:39:57;2.40;99.90
29201;DHT22;16244;51.956;12.980;2023-02-03T02:42:30;2.40;99.90
29201;DHT22;16244;51.956;12.980;2023-02-03T02:45:06;2.50;99.90
29201;DHT22;16244;51.956;12.980;2023-02-03T02:47:37;2.50;99.90
29201;DHT22;16244;51.956;12.980;2023-02-03T02:50:07;2.50;99.90
29201;DHT22;16244;51.956;12.980;2023-02-03T02:52:40;2.40;99.90
29201;DHT22;16244;51.956;12.980;2023-02-03T02:55:12;2.40;99.90
29201;DHT22;16244;51.956;12.980;2023-02-03T02:57:41;2.50;99.90
29201;DHT22;16244;51.956;12.980;2023-02-03T03:00:11;2.50;99.90
29201;DHT22;16244;51.956;12.980;2023-02-03T03:02:40;2.50;99.90
29201;DHT22;16244;51.956;12.980;2023-02-03T03:05:09;2.50;99.90
29201;DHT22;16244;51.956;12.980;2023-02-03T03:07:41;2.50;99.90
29201;DHT22;16244;51.956;12.980;2023-02-03T03:10:13;2.50;99.90
29201;DHT22;16244;51.956;12.980;2023-02-03T03:12:45;2.60;99.90
29201;DHT22;16244;51.956;12.980;2023-02-03T03:15:18;2.60;99.90
29201;DHT22;16244;51.956;12.980;2023-02-03T03:17:50;2.60;99.90
29201;DHT22;16244;51.956;12.980;2023-02-03T03:20:22;2.70;99.90
29201;DHT22;16244;51.956;12.980;2023-02-03T03:22:55;2.70;99.90
29201;DHT22;16244;51.956;12.980;2023-02-03T03:25:27;2.80;99.90
29201;DHT22;16244;51.956;12.980;2023-02-03T03:27:58;2.80;99.90
29201;DHT22;16244;51.956;12.980;2023-02-03T03:30:31;2.80;99.90
29201;DHT22;16244;51.956;12.980;2023-02-03T03:33:01;2.90;99.90
29201;DHT22;16244;51.956;12.980;2023-02-03T03:35:33;3.00;99.90
29201;DHT22;16244;51.956;12.980;2023-02-03T03:38:06;3.00;99.90
29201;DHT22;16244;51.956;12.980;2023-02-03T03:40:38;3.10;99.90
29201;DHT22;16244;51.956;12.980;2023-02-03T03:43:14;3.20;99.90
29201;DHT22;16244;51.956;12.980;2023-02-03T03:45:46;3.20;99.90
29201;DHT22;16244;51.956;12.980;2023-02-03T03:48:20;3.30;99.90
29201;DHT22;16244;51.956;12.980;2023-02-03T03:50:50;3.30;99.90
29201;DHT22;16244;51.956;12.980;2023-02-03T03:53:19;3.40;99.90
29201;DHT22;16244;51.956;12.980;2023-02-03T03:55:51;3.50;99.90
29201;DHT22;16244;51.956;12.980;2023-02-03T03:58:23;3.60;99.90
29201;DHT22;16244;51.956;12.980;2023-02-03T04:00:53;3.70;99.90
29201;DHT22;16244;51.956;12.980;2023-02-03T04:03:26;3.80;99.90
29201;DHT22;16244;51.956;12.980;2023-02-03T04:05:54;3.80;99.90
29201;DHT22;16244;51.956;12.980;2023-02-03T04:08:21;3.90;99.90
29201;DHT22;16244;51.956;12.980;2023-02-03T04:10:48;4.00;99.90
29201;DHT22;16244;51.956;12.980;2023-02-03T04:13:15;4.00;99.90
29201;DHT22;16244;51.956;12.980;2023-02-03T04:15:45;4.10;99.90
29201;DHT22;16244;51.956;12.980;2023-02-03T04:18:13;4.20;99.90
29201;DHT22;16244;51.956;12.980;2023-02-03T04:20:42;4.20;99.90
29201;DHT22;16244;51.956;12.980;2023-02-03T04:23:09;4.30;99.90
29201;DHT22;16244;51.956;12.980;2023-02-03T04:25:36;4.30;99.90
29201;DHT22;16244;51.956;12.980;2023-02-03T04:28:04;4.40;99.90
29201;DHT22;16244;51.956;12.980;2023-02-03T04:30:32;4.30;99.90
29201;DHT22;16244;51.956;12.980;2023-02-03T04:32:59;4.40;99.90
29201;DHT22;16244;51.956;12.980;2023-02-03T04:35:26;4.30;99.90
29201;DHT22;16244;51.956;12.980;2023-02-03T04:37:54;4.40;99.90
29201;DHT22;16244;51.956;12.980;2023-02-03T04:40:22;4.40;99.90
29201;DHT22;16244;51.956;12.980;2023-02-03T04:42:49;4.40;99.90
29201;DHT22;16244;51.956;12.980;2023-02-03T04:45:16;4.40;99.90
29201;DHT22;16244;51.956;12.980;2023-02-03T04:47:43;4.40;99.90
29201;DHT22;16244;51.956;12.980;2023-02-03T04:50:10;4.50;99.90
29201;DHT22;16244;51.956;12.980;2023-02-03T04:52:37;4.50;99.90
29201;DHT22;16244;51.956;12.980;2023-02-03T04:55:07;4.50;99.90
29201;DHT22;16244;51.956;12.980;2023-02-03T04:57:34;4.50;99.90
29201;DHT22;16244;51.956;12.980;2023-02-03T05:00:01;4.60;99.90
29201;DHT22;16244;51.956;12.980;2023-02-03T05:02:28;4.60;99.90
29201;DHT22;16244;51.956;12.980;2023-02-03T05:04:55;4.60;99.90
29201;DHT22;16244;51.956;12.980;2023-02-03T05:07:22;4.60;99.90
29201;DHT22;16244;51.956;12.980;2023-02-03T05:09:49;4.60;99.90
29201;DHT22;16244;51.956;12.980;2023-02-03T05:12:17;4.60;99.90
29201;DHT22;16244;51.956;12.980;2023-02-03T05:14:45;4.60;99.90
29201;DHT22;16244;51.956;12.980;2023-02-03T05:17:12;4.70;99.90
29201;DHT22;16244;51.956;12.980;2023-02-03T05:19:39;4.70;99.90
29201;DHT22;16244;51.956;12.980;2023-02-03T05:22:06;4.80;99.90
29201;DHT22;16244;51.956;12.980;2023-02-03T05:24:33;4.90;99.90
29201;DHT22;16244;51.956;12.980;2023-02-03T05:27:01;4.90;99.90
29201;DHT22;16244;51.956;12.980;2023-02-03T05:29:29;4.90;99.90
29201;DHT22;16244;51.956;12.980;2023-02-03T05:31:56;4.90;99.90
29201;DHT22;16244;51.956;12.980;2023-02-03T05:34:23;4.90;99.90
29201;DHT22;16244;51.956;12.980;2023-02-03T05:36:50;5.00;99.90
29201;DHT22;16244;51.956;12.980;2023-02-03T05:39:17;5.00;99.90
29201;DHT22;16244;51.956;12.980;2023-02-03T05:41:45;5.00;99.90
29201;DHT22;16244;51.956;12.980;2023-02-03T05:44:17;5.00;99.90
29201;DHT22;16244;51.956;12.980;2023-02-03T05:46:46;5.00;99.90
29201;DHT22;16244;51.956;12.980;2023-02-03T05:49:14;5.10;99.90
29201;DHT22;16244;51.956;12.980;2023-02-03T05:51:41;5.10;99.90
29201;DHT22;16244;51.956;12.980;2023-02-03T05:54:08;5.10;99.90
29201;DHT22;16244;51.956;12.980;2023-02-03T05:56:36;5.10;99.90
29201;DHT22;16244;51.956;12.980;2023-02-03T05:59:04;5.20;99.90
29201;DHT22;16244;51.956;12.980;2023-02-03T06:01:31;5.20;99.90
29201;DHT22;16244;51.956;12.980;2023-02-03T06:04:01;5.20;99.90
29201;DHT22;16244;51.956;12.980;2023-02-03T06:06:29;5.20;99.90
29201;DHT22;16244;51.956;12.980;2023-02-03T06:08:59;5.20;99.90
29201;DHT22;16244;51.956;12.980;2023-02-03T06:11:26;5.30;99.90
29201;DHT22;16244;51.956;12.980;2023-02-03T06:13:54;5.30;99.90
29201;DHT22;16244;51.956;12.980;2023-02-03T06:16:23;5.30;99.90
29201;DHT22;16244;51.956;12.980;2023-02-03T06:18:51;5.30;99.90
29201;DHT22;16244;51.956;12.980;2023-02-03T06:21:20;5.40;99.90
29201;DHT22;16244;51.956;12.980;2023-02-03T06:23:47;5.40;99.90
29201;DHT22;16244;51.956;12.980;2023-02-03T06:26:14;5.30;99.90
29201;DHT22;16244;51.956;12.980;2023-02-03T06:28:42;5.40;99.90
29201;DHT22;16244;51.956;12.980;2023-02-03T06:31:09;5.40;99.90
29201;DHT22;16244;51.956;12.980;2023-02-03T06:33:37;5.40;99.90
29201;DHT22;16244;51.956;12.980;2023-02-03T06:36:04;5.40;99.90
29201;DHT22;16244;51.956;12.980;2023-02-03T06:38:33;5.40;99.90
29201;DHT22;16244;51.956;12.980;2023-02-03T06:41:00;5.40;99.90
29201;DHT22;16244;51.956;12.980;2023-02-03T06:43:27;5.40;99.90
29201;DHT22;16244;51.956;12.980;2023-02-03T06:45:55;5.50;99.90
29201;DHT22;16244;51.956;12.980;2023-02-03T06:48:22;5.40;99.90
29201;DHT22;16244;51.956;12.980;2023-02-03T06:50:49;5.50;99.90
29201;DHT22;16244;51.956;12.980;2023-02-03T06:53:16;5.50;99.90
29201;DHT22;16244;51.956;12.980;2023-02-03T06:55:45;5.50;99.90
29201;DHT22;16244;51.956;12.980;2023-02-03T06:58:13;5.60;99.90
29201;DHT22;16244;51.956;12.980;2023-02-03T07:00:40;5.60;99.90
29201;DHT22;16244;51.956;12.980;2023-02-03T07:03:07;5.60;99.90
29201;DHT22;16244;51.956;12.980;2023-02-03T07:05:35;5.60;99.90
29201;DHT22;16244;51.956;12.980;2023-02-03T07:08:02;5.70;99.90
29201;DHT22;16244;51.956;12.980;2023-02-03T07:10:29;5.70;99.90
29201;DHT22;16244;51.956;12.980;2023-02-03T07:13:02;5.70;99.90
29201;DHT22;16244;51.956;12.980;2023-02-03T07:15:30;5.80;99.90
29201;DHT22;16244;51.956;12.980;2023-02-03T07:17:57;5.80;99.90
29201;DHT22;16244;51.956;12.980;2023-02-03T07:20:24;5.70;99.90
29201;DHT22;16244;51.956;12.980;2023-02-03T07:22:54;5.80;99.90
29201;DHT22;16244;51.956;12.980;2023-02-03T07:25:22;5.80;99.90
29201;DHT22;16244;51.956;12.980;2023-02-03T07:27:50;5.80;99.90
29201;DHT22;16244;51.956;12.980;2023-02-03T07:30:19;5.80;99.90
29201;DHT22;16244;51.956;12.980;2023-02-03T07:32:47;5.80;99.90
29201;DHT22;16244;51.956;12.980;2023-02-03T07:35:14;5.90;99.90
29201;DHT22;16244;51.956;12.980;2023-02-03T07:37:42;5.90;99.90
29201;DHT22;16244;51.956;12.980;2023-02-03T07:40:10;5.90;99.90
29201;DHT22;16244;51.956;12.980;2023-02-03T07:42:40;5.90;99.90
29201;DHT22;16244;51.956;12.980;2023-02-03T07:45:09;5.90;99.90
29201;DHT22;16244;51.956;12.980;2023-02-03T07:47:38;6.00;99.90
29201;DHT22;16244;51.956;12.980;2023-02-03T07:50:06;5.90;99.90
29201;DHT22;16244;51.956;12.980;2023-02-03T07:52:34;6.00;99.90
29201;DHT22;16244;51.956;12.980;2023-02-03T07:55:01;5.90;99.90
29201;DHT22;16244;51.956;12.980;2023-02-03T07:57:28;5.90;99.90
29201;DHT22;16244;51.956;12.980;2023-02-03T07:59:55;5.90;99.90
29201;DHT22;16244;51.956;12.980;2023-02-03T08:02:22;5.90;99.90
29201;DHT22;16244;51.956;12.980;2023-02-03T08:04:51;5.90;99.90
29201;DHT22;16244;51.956;12.980;2023-02-03T08:07:18;6.00;99.90
29201;DHT22;16244;51.956;12.980;2023-02-03T08:09:45;6.00;99.90
29201;DHT22;16244;51.956;12.980;2023-02-03T08:12:12;6.00;99.90
29201;DHT22;16244;51.956;12.980;2023-02-03T08:14:39;6.10;99.90
29201;DHT22;16244;51.956;12.980;2023-02-03T08:17:07;6.10;99.90
29201;DHT22;16244;51.956;12.980;2023-02-03T08:19:34;6.10;99.90
29201;DHT22;16244;51.956;12.980;2023-02-03T08:22:02;6.20;99.90
29201;DHT22;16244;51.956;12.980;2023-02-03T08:24:29;6.30;99.90
29201;DHT22;16244;51.956;12.980;2023-02-03T08:26:57;6.30;99.90
29201;DHT22;16244;51.956;12.980;2023-02-03T08:29:25;6.30;99.90
29201;DHT22;16244;51.956;12.980;2023-02-03T08:31:53;6.30;99.90
29201;DHT22;16244;51.956;12.980;2023-02-03T08:34:20;6.30;99.90
29201;DHT22;16244;51.956;12.980;2023-02-03T08:36:48;6.20;99.90
29201;DHT22;16244;51.956;12.980;2023-02-03T08:39:16;6.30;99.90
29201;DHT22;16244;51.956;12.980;2023-02-03T08:41:43;6.30;99.90
29201;DHT22;16244;51.956;12.980;2023-02-03T08:44:10;6.20;99.90
29201;DHT22;16244;51.956;12.980;2023-02-03T08:46:38;6.20;99.90
29201;DHT22;16244;51.956;12.980;2023-02-03T08:49:10;6.30;99.90
29201;DHT22;16244;51.956;12.980;2023-02-03T08:51:37;6.30;99.90
29201;DHT22;16244;51.956;12.980;2023-02-03T08:54:05;6.30;99.90
29201;DHT22;16244;51.956;12.980;2023-02-03T08:56:33;6.30;99.90
29201;DHT22;16244;51.956;12.980;2023-02-03T08:59:00;6.40;99.90
29201;DHT22;16244;51.956;12.980;2023-02-03T09:01:27;6.40;99.90
29201;DHT22;16244;51.956;12.980;2023-02-03T09:03:55;6.40;99.90
29201;DHT22;16244;51.956;12.980;2023-02-03T09:06:22;6.40;99.90
29201;DHT22;16244;51.956;12.980;2023-02-03T09:08:49;6.40;99.90
29201;DHT22;16244;51.956;12.980;2023-02-03T09:11:17;6.40;99.90
29201;DHT22;16244;51.956;12.980;2023-02-03T09:13:46;6.40;99.90
29201;DHT22;16244;51.956;12.980;2023-02-03T09:16:16;6.40;99.90
29201;DHT22;16244;51.956;12.980;2023-02-03T09:18:45;6.40;99.90
29201;DHT22;16244;51.956;12.980;2023-02-03T09:21:13;6.40;99.90
29201;DHT22;16244;51.956;12.980;2023-02-03T09:23:42;6.40;99.90
29201;DHT22;16244;51.956;12.980;2023-02-03T09:26:12;6.40;99.90
29201;DHT22;16244;51.956;12.980;2023-02-03T09:28:39;6.50;99.90
29201;DHT22;16244;51.956;12.980;2023-02-03T09:31:09;6.50;99.90
29201;DHT22;16244;51.956;12.980;2023-02-03T09:33:37;6.50;99.90
29201;DHT22;16244;51.956;12.980;2023-02-03T09:36:06;6.50;99.90
29201;DHT22;16244;51.956;12.980;2023-02-03T09:38:33;6.60;99.90
29201;DHT22;16244;51.956;12.980;2023-02-03T09:41:05;6.60;99.90
29201;DHT22;16244;51.956;12.980;2023-02-03T09:43:42;6.60;99.90
29201;DHT22;16244;51.956;12.980;2023-02-03T09:46:17;6.70;99.90
29201;DHT22;16244;51.956;12.980;2023-02-03T09:48:47;6.70;99.90
29201;DHT22;16244;51.956;12.980;2023-02-03T09:51:20;6.70;99.90
29201;DHT22;16244;51.956;12.980;2023-02-03T09:53:54;6.70;99.90
29201;DHT22;16244;51.956;12.980;2023-02-03T09:56:26;6.70;99.90
29201;DHT22;16244;51.956;12.980;2023-02-03T09:58:55;6.70;99.90
29201;DHT22;16244;51.956;12.980;2023-02-03T10:01:25;6.70;99.90
29201;DHT22;16244;51.956;12.980;2023-02-03T10:03:58;6.70;99.90
29201;DHT22;16244;51.956;12.980;2023-02-03T10:06:32;6.70;99.90
29201;DHT22;16244;51.956;12.980;2023-02-03T10:09:22;6.80;99.90
29201;DHT22;16244;51.956;12.980;2023-02-03T10:12:17;6.90;99.90
29201;DHT22;16244;51.956;12.980;2023-02-03T10:15:02;6.90;99.90
29201;DHT22;16244;51.956;12.980;2023-02-03T10:17:37;6.90;99.90
29201;DHT22;16244;51.956;12.980;2023-02-03T10:20:10;7.00;99.90
29201;DHT22;16244;51.956;12.980;2023-02-03T10:22:44;7.00;99.90
29201;DHT22;16244;51.956;12.980;2023-02-03T10:25:18;7.00;99.90
29201;DHT22;16244;51.956;12.980;2023-02-03T10:27:50;7.00;99.90
29201;DHT22;16244;51.956;12.980;2023-02-03T10:30:21;7.00;99.90
29201;DHT22;16244;51.956;12.980;2023-02-03T10:32:52;7.00;99.90
29201;DHT22;16244;51.956;12.980;2023-02-03T10:35:20;7.00;99.90
29201;DHT22;16244;51.956;12.980;2023-02-03T10:37:55;7.00;99.90
29201;DHT22;16244;51.956;12.980;2023-02-03T10:40:24;7.10;99.90
29201;DHT22;16244;51.956;12.980;2023-02-03T10:42:54;7.10;99.90
29201;DHT22;16244;51.956;12.980;2023-02-03T10:45:39;7.10;99.90
29201;DHT22;16244;51.956;12.980;2023-02-03T10:48:12;7.20;99.90
29201;DHT22;16244;51.956;12.980;2023-02-03T10:50:45;7.30;99.90
29201;DHT22;16244;51.956;12.980;2023-02-03T10:53:22;7.40;99.90
29201;DHT22;16244;51.956;12.980;2023-02-03T10:56:00;7.40;99.90
29201;DHT22;16244;51.956;12.980;2023-02-03T10:58:29;7.50;99.90
29201;DHT22;16244;51.956;12.980;2023-02-03T11:01:05;7.50;99.90
29201;DHT22;16244;51.956;12.980;2023-02-03T11:03:34;7.60;99.90
29201;DHT22;16244;51.956;12.980;2023-02-03T11:06:08;7.70;99.90
29201;DHT22;16244;51.956;12.980;2023-02-03T11:08:38;7.70;99.90
29201;DHT22;16244;51.956;12.980;2023-02-03T11:11:07;7.80;99.90
29201;DHT22;16244;51.956;12.980;2023-02-03T11:13:34;7.90;99.90
29201;DHT22;16244;51.956;12.980;2023-02-03T11:16:04;7.90;99.90
29201;DHT22;16244;51.956;12.980;2023-02-03T11:18:37;7.90;99.90
29201;DHT22;16244;51.956;12.980;2023-02-03T11:21:07;7.90;99.90
29201;DHT22;16244;51.956;12.980;2023-02-03T11:23:35;7.90;99.90
29201;DHT22;16244;51.956;12.980;2023-02-03T11:26:10;7.90;99.90
29201;DHT22;16244;51.956;12.980;2023-02-03T11:28:41;8.00;99.90
29201;DHT22;16244;51.956;12.980;2023-02-03T11:31:24;8.00;99.90
29201;DHT22;16244;51.956;12.980;2023-02-03T11:33:57;8.10;99.90
29201;DHT22;16244;51.956;12.980;2023-02-03T11:36:26;8.10;99.90
29201;DHT22;16244;51.956;12.980;2023-02-03T11:39:18;8.10;99.90
29201;DHT22;16244;51.956;12.980;2023-02-03T11:41:46;8.10;99.90
29201;DHT22;16244;51.956;12.980;2023-02-03T11:44:18;7.60;97.90
29201;DHT22;16244;51.956;12.980;2023-02-03T11:46:47;7.20;98.00
29201;DHT22;16244;51.956;12.980;2023-02-03T11:49:51;7.10;96.70
29201;DHT22;16244;51.956;12.980;2023-02-03T11:52:49;7.00;97.00
29201;DHT22;16244;51.956;12.980;2023-02-03T11:55:30;6.90;96.70
29201;DHT22;16244;51.956;12.980;2023-02-03T12:01:10;7.00;95.70
29201;DHT22;16244;51.956;12.980;2023-02-03T12:03:57;7.10;95.00
29201;DHT22;16244;51.956;12.980;2023-02-03T12:06:40;7.10;95.10
29201;DHT22;16244;51.956;12.980;2023-02-03T12:09:23;7.20;94.00
29201;DHT22;16244;51.956;12.980;2023-02-03T12:12:11;7.30;92.90
29201;DHT22;16244;51.956;12.980;2023-02-03T12:14:51;7.30;93.20
29201;DHT22;16244;51.956;12.980;2023-02-03T12:17:42;7.30;93.20
29201;DHT22;16244;51.956;12.980;2023-02-03T12:20:21;7.20;93.40
29201;DHT22;16244;51.956;12.980;2023-02-03T12:22:58;7.20;93.40
29201;DHT22;16244;51.956;12.980;2023-02-03T12:25:38;7.20;92.80
29201;DHT22;16244;51.956;12.980;2023-02-03T12:28:20;7.20;93.80
29201;DHT22;16244;51.956;12.980;2023-02-03T12:30:57;7.30;93.80
29201;DHT22;16244;51.956;12.980;2023-02-03T12:33:29;7.40;93.30
29201;DHT22;16244;51.956;12.980;2023-02-03T12:36:04;7.60;92.70
29201;DHT22;16244;51.956;12.980;2023-02-03T12:38:38;7.80;92.20
29201;DHT22;16244;51.956;12.980;2023-02-03T12:41:10;7.80;92.00
29201;DHT22;16244;51.956;12.980;2023-02-03T12:43:42;7.80;92.40
29201;DHT22;16244;51.956;12.980;2023-02-03T12:46:16;7.80;93.20
29201;DHT22;16244;51.956;12.980;2023-02-03T12:48:49;7.80;92.50
29201;DHT22;16244;51.956;12.980;2023-02-03T12:51:27;7.90;92.00
29201;DHT22;16244;51.956;12.980;2023-02-03T12:54:00;7.90;92.50
29201;DHT22;16244;51.956;12.980;2023-02-03T12:56:36;7.90;92.00
29201;DHT22;16244;51.956;12.980;2023-02-03T12:59:08;7.90;91.70
29201;DHT22;16244;51.956;12.980;2023-02-03T13:01:43;7.70;91.40
29201;DHT22;16244;51.956;12.980;2023-02-03T13:04:17;7.80;91.30
29201;DHT22;16244;51.956;12.980;2023-02-03T13:06:51;7.70;91.20
29201;DHT22;16244;51.956;12.980;2023-02-03T13:09:27;7.70;91.10
29201;DHT22;16244;51.956;12.980;2023-02-03T13:12:01;7.80;90.80
29201;DHT22;16244;51.956;12.980;2023-02-03T13:14:33;7.80;90.70
29201;DHT22;16244;51.956;12.980;2023-02-03T13:17:07;7.80;90.00
29201;DHT22;16244;51.956;12.980;2023-02-03T13:19:41;7.80;88.50
29201;DHT22;16244;51.956;12.980;2023-02-03T13:22:12;7.90;90.40
29201;DHT22;16244;51.956;12.980;2023-02-03T13:24:44;8.00;87.90
29201;DHT22;16244;51.956;12.980;2023-02-03T13:27:23;8.00;89.70
29201;DHT22;16244;51.956;12.980;2023-02-03T13:30:25;7.70;91.00
29201;DHT22;16244;51.956;12.980;2023-02-03T13:35:56;8.00;88.70
29201;DHT22;16244;51.956;12.980;2023-02-03T13:41:23;7.60;90.20
29201;DHT22;16244;51.956;12.980;2023-02-03T13:43:54;7.40;92.40
29201;DHT22;16244;51.956;12.980;2023-02-03T13:46:24;7.10;92.50
29201;DHT22;16244;51.956;12.980;2023-02-03T13:48:53;6.90;92.30
29201;DHT22;16244;51.956;12.980;2023-02-03T13:51:25;6.60;92.90
29201;DHT22;16244;51.956;12.980;2023-02-03T13:54:01;6.70;94.20
29201;DHT22;16244;51.956;12.980;2023-02-03T13:56:31;7.00;92.00
29201;DHT22;16244;51.956;12.980;2023-02-03T13:59:04;7.10;93.40
29201;DHT22;16244;51.956;12.980;2023-02-03T14:01:33;7.10;92.90
29201;DHT22;16244;51.956;12.980;2023-02-03T14:04:03;7.20;92.10
29201;DHT22;16244;51.956;12.980;2023-02-03T14:07:01;7.30;92.40
29201;DHT22;16244;51.956;12.980;2023-02-03T14:10:04;7.40;92.10
29201;DHT22;16244;51.956;12.980;2023-02-03T14:12:35;7.30;93.10
29201;DHT22;16244;51.956;12.980;2023-02-03T14:15:30;7.10;93.80
29201;DHT22;16244;51.956;12.980;2023-02-03T14:23:49;6.50;95.10
29201;DHT22;16244;51.956;12.980;2023-02-03T14:26:24;6.50;95.10
29201;DHT22;16244;51.956;12.980;2023-02-03T14:28:55;6.40;95.70
29201;DHT22;16244;51.956;12.980;2023-02-03T14:31:23;6.40;94.30
29201;DHT22;16244;51.956;12.980;2023-02-03T14:34:08;6.50;92.60
29201;DHT22;16244;51.956;12.980;2023-02-03T14:36:43;6.60;92.70
29201;DHT22;16244;51.956;12.980;2023-02-03T14:39:31;6.60;90.70
29201;DHT22;16244;51.956;12.980;2023-02-03T14:42:05;6.80;88.80
29201;DHT22;16244;51.956;12.980;2023-02-03T14:44:42;6.90;88.70
29201;DHT22;16244;51.956;12.980;2023-02-03T14:47:18;6.90;89.50
29201;DHT22;16244;51.956;12.980;2023-02-03T14:50:01;6.90;90.30
29201;DHT22;16244;51.956;12.980;2023-02-03T14:52:45;6.80;90.50
29201;DHT22;16244;51.956;12.980;2023-02-03T14:55:26;6.80;91.10
29201;DHT22;16244;51.956;12.980;2023-02-03T14:57:59;6.70;92.20
29201;DHT22;16244;51.956;12.980;2023-02-03T15:00:30;6.70;92.40
29201;DHT22;16244;51.956;12.980;2023-02-03T15:03:20;6.60;92.40
29201;DHT22;16244;51.956;12.980;2023-02-03T15:05:52;6.70;90.90
29201;DHT22;16244;51.956;12.980;2023-02-03T15:08:35;6.80;90.20
29201;DHT22;16244;51.956;12.980;2023-02-03T15:11:30;6.80;90.90
29201;DHT22;16244;51.956;12.980;2023-02-03T15:14:16;6.70;91.20
29201;DHT22;16244;51.956;12.980;2023-02-03T15:16:47;6.70;90.80
29201;DHT22;16244;51.956;12.980;2023-02-03T15:19:17;6.70;89.80
29201;DHT22;16244;51.956;12.980;2023-02-03T15:21:47;6.80;88.50
29201;DHT22;16244;51.956;12.980;2023-02-03T15:24:15;6.70;89.60
29201;DHT22;16244;51.956;12.980;2023-02-03T15:26:47;6.90;85.80
29201;DHT22;16244;51.956;12.980;2023-02-03T15:29:20;6.90;85.70
29201;DHT22;16244;51.956;12.980;2023-02-03T15:31:54;6.90;86.00
29201;DHT22;16244;51.956;12.980;2023-02-03T15:34:26;6.80;87.10
29201;DHT22;16244;51.956;12.980;2023-02-03T15:36:57;6.80;84.50
29201;DHT22;16244;51.956;12.980;2023-02-03T15:39:35;6.90;84.40
29201;DHT22;16244;51.956;12.980;2023-02-03T15:42:08;6.80;85.40
29201;DHT22;16244;51.956;12.980;2023-02-03T15:44:42;6.70;84.10
29201;DHT22;16244;51.956;12.980;2023-02-03T15:47:22;6.90;82.80
29201;DHT22;16244;51.956;12.980;2023-02-03T15:49:57;6.90;83.30
29201;DHT22;16244;51.956;12.980;2023-02-03T15:52:27;6.80;84.90
29201;DHT22;16244;51.956;12.980;2023-02-03T15:55:02;6.80;84.10
29201;DHT22;16244;51.956;12.980;2023-02-03T15:57:32;6.80;84.80
29201;DHT22;16244;51.956;12.980;2023-02-03T16:00:10;6.80;82.40
29201;DHT22;16244;51.956;12.980;2023-02-03T16:02:42;6.90;84.10
29201;DHT22;16244;51.956;12.980;2023-02-03T16:05:22;6.80;84.50
29201;DHT22;16244;51.956;12.980;2023-02-03T16:07:49;6.80;84.40
29201;DHT22;16244;51.956;12.980;2023-02-03T16:10:28;6.80;84.20
29201;DHT22;16244;51.956;12.980;2023-02-03T16:13:18;6.80;83.90
29201;DHT22;16244;51.956;12.980;2023-02-03T16:15:58;6.80;83.80
29201;DHT22;16244;51.956;12.980;2023-02-03T16:18:27;6.90;83.50